Flight Track Log - Related Links

Times and Time Zones

All times are in EDT time to prevent confusion due to time zone crossing. See the EGF3101 flight status page for this flight to view local times or setup timezone preferences in your user account.

Time Position Orientation Groundspeed Altitude Reporting Facility
EDT Latitude Longitude Course Direction KTS MPH feet Rate Location/Type
Tue 08:42:50 AM 41.9333 -87.9167 153° Southeast 165 190 2,100  Level Chicago TRACON
Tue 08:43:51 AM 41.8833 -87.9333 194° South 219 252 3,900 1,754 Climbing Chicago TRACON
Tue 08:44:00 AM 41.8448 -88.1219 206° Southwest  Level Estimated
Tue 08:45:00 AM 41.7762 -88.2291 203° Southwest  Level Estimated
Tue 08:45:00 AM 41.8028 -87.9233 175° South 261 300 5,900  Level Chicago Center
Tue 08:46:00 AM 41.7075 -88.3361 197° South  Level Estimated
Tue 08:46:02 AM 41.7339 -87.9525 198° South 266 306 7,900  Level Chicago Center
Tue 08:47:00 AM 41.6136 -88.2722 153° Southeast  Level FlightAware Approximate
Tue 08:47:04 AM 41.6650 -88.0017 208° Southwest 282 325 9,700  Level Chicago Center
Tue 08:48:00 AM 41.5216 -88.2097 153° Southeast  Level FlightAware Approximate
Tue 08:48:05 AM 41.5783 -88.0614 207° Southwest 291 335 11,900  Level Chicago Center
Tue 08:49:07 AM 41.5047 -88.1133 208° Southwest 302 348 13,500 1,452 Climbing Chicago Center
Tue 08:50:09 AM 41.4275 -88.1650 207° Southwest 321 369 14,900 1,355 Climbing Chicago Center
Tue 08:51:11 AM 41.3453 -88.2097 202° Southwest 329 379 16,300 1,548 Climbing Chicago Center
Tue 08:52:13 AM 41.2433 -88.2553 199° South 325 374 18,100 1,258 Climbing Chicago Center
Tue 08:53:15 AM 41.1531 -88.2942 198° South 340 391 18,900 871 Climbing Chicago Center
Tue 08:54:17 AM 41.0594 -88.3358 199° South 355 409 19,900 976 Climbing Chicago Center
Tue 08:55:18 AM 40.9633 -88.3794 199° South 365 420 20,900 976 Climbing Chicago Center
Tue 08:56:20 AM 40.8647 -88.4233 199° South 375 432 21,900 1,065 Climbing Chicago Center
Tue 08:57:22 AM 40.7450 -88.4761 198° South 380 437 23,100 1,065 Climbing Chicago Center
Tue 08:58:24 AM 40.6444 -88.5214 199° South 384 442 24,100 968 Climbing Chicago Center
Tue 08:59:26 AM 40.5447 -88.5653 198° South 382 440 25,100 976 Climbing Chicago Center
Tue 09:00:27 AM 40.4444 -88.6103 199° South 385 443 26,100 976 Climbing Chicago Center
Tue 09:01:29 AM 40.3386 -88.6569 199° South 393 452 27,100 968 Climbing Chicago Center
Tue 09:02:31 AM 40.2633 -88.7553 225° Southwest 381 438 28,100 1,161 Climbing Chicago Center
Tue 09:03:33 AM 40.2008 -88.8644 233° Southwest 373 429 29,500 1,355 Climbing Chicago Center
Tue 09:04:35 AM 40.1242 -88.9925 232° Southwest 371 427 30,900 1,171 Climbing Chicago Center
Tue 09:05:36 AM 40.0594 -89.0983 231° Southwest 371 427 31,900 939 Climbing Chicago Center
Tue 09:06:30 AM 40.0061 -89.1869 232° Southwest 376 433 32,700 931 Climbing Kansas City Center
Tue 09:07:32 AM 39.9400 -89.2972 232° Southwest 381 438 33,700 968 Climbing Kansas City Center
Tue 09:08:34 AM 39.8731 -89.4064 231° Southwest 384 442 34,700 871 Climbing Kansas City Center
Tue 09:09:36 AM 39.7928 -89.5403 232° Southwest 388 447 35,500 581 Climbing Kansas City Center
Tue 09:10:38 AM 39.7219 -89.6569 232° Southwest 401 461 35,900 242 Climbing Kansas City Center
Tue 09:11:40 AM 39.6467 -89.7797 231° Southwest 420 483 36,000 48 Climbing Kansas City Center
Tue 09:12:42 AM 39.5708 -89.9064 232° Southwest 433 498 36,000  Level Kansas City Center
Tue 09:13:44 AM 39.4939 -90.0344 232° Southwest 443 510 36,000  Level Kansas City Center
Tue 09:14:46 AM 39.4161 -90.1611 232° Southwest 448 516 36,000  Level Kansas City Center
Tue 09:15:48 AM 39.3208 -90.3142 231° Southwest 455 524 36,000  Level Kansas City Center
Tue 09:16:50 AM 39.2439 -90.4400 232° Southwest 451 519 36,000  Level Kansas City Center
Tue 09:17:52 AM 39.1653 -90.5644 231° Southwest 450 518 36,000  Level Kansas City Center
Tue 09:18:54 AM 39.0892 -90.6872 231° Southwest 445 512 36,000  Level Kansas City Center
Tue 09:19:57 AM 39.0128 -90.8097 231° Southwest 443 510 36,000 -48 Level Kansas City Center
Tue 09:20:59 AM 38.9192 -90.9583 231° Southwest 448 516 35,900  Descending Kansas City Center
Tue 09:22:01 AM 38.8525 -91.0922 237° Southwest 447 514 36,000 48 Climbing Kansas City Center
Tue 09:23:03 AM 38.7878 -91.2264 238° Southwest 447 514 36,000  Level Kansas City Center
Tue 09:24:05 AM 38.7175 -91.3633 237° Southwest 452 520 36,000  Level Kansas City Center
Tue 09:25:07 AM 38.6508 -91.4944 237° Southwest 448 516 36,000  Level Kansas City Center
Tue 09:26:09 AM 38.5686 -91.6550 237° Southwest 448 516 36,000  Level Kansas City Center
Tue 09:27:11 AM 38.5008 -91.7892 237° Southwest 449 517 36,000  Level Kansas City Center
Tue 09:28:13 AM 38.4322 -91.9253 237° Southwest 452 520 36,000  Level Kansas City Center
Tue 09:29:15 AM 38.3642 -92.0592 237° Southwest 452 520 36,000  Level Kansas City Center
Tue 09:30:17 AM 38.2961 -92.1928 237° Southwest 451 519 36,000  Level Kansas City Center
Tue 09:31:19 AM 38.2144 -92.3533 237° Southwest 453 521 36,000  Level Kansas City Center
Tue 09:32:21 AM 38.1425 -92.4903 236° Southwest 472 543 36,000 -48 Level Kansas City Center
Tue 09:33:23 AM 38.0744 -92.6233 237° Southwest 458 527 35,900  Descending Kansas City Center
Tue 09:34:25 AM 38.0061 -92.7525 236° Southwest 455 524 36,000 48 Climbing Kansas City Center
Tue 09:35:27 AM 37.9358 -92.8842 236° Southwest 453 521 36,000  Level Kansas City Center
Tue 09:36:29 AM 37.8511 -93.0436 236° Southwest 455 524 36,000 -194 Level Kansas City Center
Tue 09:37:31 AM 37.7825 -93.1761 237° Southwest 452 520 35,600 -677 Descending Kansas City Center
Tue 09:38:33 AM 37.7111 -93.3100 236° Southwest 456 525 34,600 -968 Descending Kansas City Center
Tue 09:39:35 AM 37.6386 -93.4450 236° Southwest 462 532 33,600 -968 Descending Kansas City Center
Tue 09:40:37 AM 37.5653 -93.5786 235° Southwest 463 533 32,600 -823 Descending Kansas City Center
Tue 09:41:39 AM 37.4936 -93.7144 236° Southwest 464 534 31,900 -290 Descending Kansas City Center
Tue 09:42:41 AM 37.4078 -93.8731 236° Southwest 458 527 32,000 48 Climbing Kansas City Center
Tue 09:43:43 AM 37.3369 -94.0069 236° Southwest 459 528 32,000  Level Kansas City Center
Tue 09:44:45 AM 37.2622 -94.1439 236° Southwest 460 529 32,000  Level Kansas City Center
Tue 09:45:47 AM 37.1894 -94.2783 236° Southwest 464 534 32,000 -387 Level Kansas City Center
Tue 09:46:49 AM 37.1167 -94.4122 236° Southwest 465 535 31,200 -1,839 Descending Kansas City Center
Tue 09:47:51 AM 37.0444 -94.5469 236° Southwest 465 535 28,200 -2,832 Descending Kansas City Center
Tue 09:48:54 AM 36.9711 -94.6767 235° Southwest 459 528 25,300 -2,880 Descending Kansas City Center
Tue 09:49:56 AM 36.8969 -94.8067 235° Southwest 461 531 22,200 -3,242 Descending Kansas City Center
Tue 09:50:58 AM 36.8156 -94.9567 236° Southwest 446 513 18,600 -2,952 Descending Kansas City Center
Tue 09:52:00 AM 36.7511 -95.0717 235° Southwest 425 489 16,100 -2,516 Descending Kansas City Center
Tue 09:52:31 AM 36.7161 -95.1328 234° Southwest 392 451 14,700 -2,419 Descending Kansas City Center
Tue 09:53:02 AM 36.6892 -95.1825 236° Southwest 400 460 13,600 -2,258 Descending Kansas City Center
Tue 09:54:04 AM 36.6222 -95.2864 231° Southwest 389 448 11,200 -1,694 Descending Kansas City Center
Tue 09:55:06 AM 36.5675 -95.3922 237° Southwest 372 428 10,100 -581 Descending Kansas City Center
Tue 09:56:08 AM 36.5011 -95.5169 237° Southwest 368 423 10,000 -88 Descending Kansas City Center
Tue 09:57:22 AM 36.4381 -95.6369 237° Southwest 320 368 9,900 -1,210 Descending Kansas City Center
Tue 09:58:12 AM 36.4044 -95.6958 235° Southwest 287 330 7,500 -2,880 Descending Kansas City Center

Login

Don't have an account? Register now (free) for customized features, flight alerts, and more!